createdAt,value
2022-08-07T00:06:51.461Z,139
2022-08-07T00:26:49.677Z,138
2022-08-07T00:46:40.899Z,137
2022-08-07T01:06:40.925Z,138
2022-08-07T01:26:40.967Z,139
2022-08-07T01:46:40.986Z,138
2022-08-07T02:26:41.044Z,139
2022-08-07T02:46:46.633Z,139
2022-08-07T03:06:48.140Z,139
2022-08-07T03:26:42.972Z,137
2022-08-07T04:06:55.196Z,137
2022-08-07T04:26:41.014Z,138
2022-08-07T04:46:59.426Z,139
2022-08-07T05:06:42.916Z,139
2022-08-07T05:26:41.410Z,142
2022-08-07T05:46:41.114Z,143
2022-08-07T06:06:46.001Z,150
2022-08-07T06:26:41.366Z,150
2022-08-07T06:46:41.385Z,153
2022-08-07T07:06:57.421Z,152
2022-08-07T07:26:41.357Z,158
2022-08-07T07:46:53.765Z,154
2022-08-07T08:06:51.020Z,154
2022-08-07T08:26:41.386Z,157
2022-08-07T08:46:41.608Z,156
2022-08-07T09:06:42.759Z,173
2022-08-07T09:26:41.485Z,157
2022-08-07T09:47:27.937Z,156
2022-08-07T10:26:41.501Z,159
2022-08-07T10:46:41.519Z,155
2022-08-07T11:06:41.542Z,157
2022-08-07T11:26:43.278Z,160
2022-08-07T12:06:50.253Z,158
2022-08-07T12:46:41.597Z,155
2022-08-07T13:06:54.162Z,150
2022-08-07T13:26:41.761Z,152
2022-08-07T13:46:48.790Z,147
2022-08-07T14:06:41.663Z,151
2022-08-07T14:26:50.145Z,146
2022-08-07T14:46:51.997Z,149
2022-08-07T15:06:47.694Z,150
2022-08-07T15:26:48.741Z,148
2022-08-07T15:46:47.333Z,151
2022-08-07T16:26:59.065Z,156
2022-08-07T16:47:04.316Z,146
2022-08-07T17:06:45.280Z,153
2022-08-07T17:46:41.795Z,145
2022-08-07T18:06:43.146Z,146
2022-08-07T18:26:41.830Z,139
2022-08-07T18:46:43.078Z,134
2022-08-07T19:06:48.121Z,139
2022-08-07T19:27:01.798Z,137
2022-08-07T19:46:50.373Z,133
2022-08-07T20:06:42.983Z,129
2022-08-07T20:26:45.331Z,133
2022-08-07T20:46:43.163Z,133
2022-08-07T21:06:42.563Z,134
2022-08-07T21:26:42.823Z,130
2022-08-07T21:46:42.033Z,132
2022-08-07T22:26:44.507Z,133
2022-08-07T22:47:03.291Z,132
2022-08-07T23:06:42.270Z,136
2022-08-07T23:26:42.127Z,137
2022-08-07T23:46:42.962Z,136
